sensor_id;sensor_type;location;lat;lon;timestamp;P1;durP1;ratioP1;P2;durP2;ratioP2
73452;SDS011;61687;56.232;43.854;2024-01-10T00:00:08;5.85;;;4.25;;
73452;SDS011;61687;56.232;43.854;2024-01-10T00:02:34;6.32;;;3.85;;
73452;SDS011;61687;56.232;43.854;2024-01-10T00:05:00;6.13;;;4.07;;
73452;SDS011;61687;56.232;43.854;2024-01-10T00:07:26;5.70;;;4.20;;
73452;SDS011;61687;56.232;43.854;2024-01-10T00:09:52;6.68;;;4.35;;
73452;SDS011;61687;56.232;43.854;2024-01-10T00:12:18;7.25;;;3.97;;
73452;SDS011;61687;56.232;43.854;2024-01-10T00:14:44;6.80;;;4.20;;
73452;SDS011;61687;56.232;43.854;2024-01-10T00:17:10;5.47;;;3.85;;
73452;SDS011;61687;56.232;43.854;2024-01-10T00:19:36;7.88;;;4.72;;
73452;SDS011;61687;56.232;43.854;2024-01-10T00:22:02;13.93;;;4.47;;
73452;SDS011;61687;56.232;43.854;2024-01-10T00:24:27;7.60;;;4.30;;
73452;SDS011;61687;56.232;43.854;2024-01-10T00:26:53;10.88;;;5.10;;
73452;SDS011;61687;56.232;43.854;2024-01-10T00:29:20;9.70;;;4.40;;
73452;SDS011;61687;56.232;43.854;2024-01-10T00:31:46;8.23;;;4.50;;
73452;SDS011;61687;56.232;43.854;2024-01-10T00:34:12;10.23;;;4.22;;
73452;SDS011;61687;56.232;43.854;2024-01-10T00:36:38;9.27;;;5.13;;
73452;SDS011;61687;56.232;43.854;2024-01-10T00:39:04;9.32;;;4.57;;
73452;SDS011;61687;56.232;43.854;2024-01-10T00:41:30;9.13;;;4.85;;
73452;SDS011;61687;56.232;43.854;2024-01-10T00:43:56;8.30;;;4.63;;
73452;SDS011;61687;56.232;43.854;2024-01-10T00:46:22;8.77;;;4.22;;
73452;SDS011;61687;56.232;43.854;2024-01-10T00:48:48;11.93;;;4.63;;
73452;SDS011;61687;56.232;43.854;2024-01-10T00:51:14;10.25;;;4.32;;
73452;SDS011;61687;56.232;43.854;2024-01-10T00:53:40;14.18;;;5.40;;
73452;SDS011;61687;56.232;43.854;2024-01-10T00:56:07;10.18;;;4.93;;
73452;SDS011;61687;56.232;43.854;2024-01-10T00:58:34;15.17;;;5.40;;
73452;SDS011;61687;56.232;43.854;2024-01-10T01:01:01;11.50;;;5.22;;
73452;SDS011;61687;56.232;43.854;2024-01-10T01:03:26;9.48;;;4.10;;
73452;SDS011;61687;56.232;43.854;2024-01-10T01:05:52;9.18;;;4.50;;
73452;SDS011;61687;56.232;43.854;2024-01-10T01:08:18;10.77;;;4.43;;
73452;SDS011;61687;56.232;43.854;2024-01-10T01:10:44;9.45;;;4.88;;
73452;SDS011;61687;56.232;43.854;2024-01-10T01:13:10;7.68;;;3.28;;
73452;SDS011;61687;56.232;43.854;2024-01-10T01:15:36;9.20;;;3.67;;
73452;SDS011;61687;56.232;43.854;2024-01-10T01:18:02;7.53;;;4.05;;
73452;SDS011;61687;56.232;43.854;2024-01-10T01:20:29;8.35;;;4.10;;
73452;SDS011;61687;56.232;43.854;2024-01-10T01:22:55;11.20;;;5.78;;
73452;SDS011;61687;56.232;43.854;2024-01-10T01:25:21;12.20;;;4.97;;
73452;SDS011;61687;56.232;43.854;2024-01-10T01:27:47;13.27;;;5.70;;
73452;SDS011;61687;56.232;43.854;2024-01-10T01:30:13;10.13;;;4.63;;
73452;SDS011;61687;56.232;43.854;2024-01-10T01:32:40;9.23;;;4.70;;
73452;SDS011;61687;56.232;43.854;2024-01-10T01:35:06;11.50;;;5.07;;
73452;SDS011;61687;56.232;43.854;2024-01-10T01:37:32;11.95;;;5.30;;
73452;SDS011;61687;56.232;43.854;2024-01-10T01:39:58;11.32;;;5.35;;
73452;SDS011;61687;56.232;43.854;2024-01-10T01:42:24;10.15;;;5.20;;
73452;SDS011;61687;56.232;43.854;2024-01-10T01:44:50;9.63;;;4.90;;
73452;SDS011;61687;56.232;43.854;2024-01-10T01:47:16;10.27;;;5.03;;
73452;SDS011;61687;56.232;43.854;2024-01-10T01:49:42;12.70;;;5.60;;
73452;SDS011;61687;56.232;43.854;2024-01-10T01:52:08;12.20;;;4.57;;
73452;SDS011;61687;56.232;43.854;2024-01-10T01:54:35;9.10;;;4.17;;
73452;SDS011;61687;56.232;43.854;2024-01-10T01:57:02;9.05;;;4.25;;
73452;SDS011;61687;56.232;43.854;2024-01-10T01:59:28;10.50;;;5.05;;
73452;SDS011;61687;56.232;43.854;2024-01-10T02:01:55;10.63;;;4.80;;
73452;SDS011;61687;56.232;43.854;2024-01-10T02:04:23;8.10;;;4.45;;
73452;SDS011;61687;56.232;43.854;2024-01-10T02:06:49;9.03;;;4.53;;
73452;SDS011;61687;56.232;43.854;2024-01-10T02:09:15;13.48;;;4.85;;
73452;SDS011;61687;56.232;43.854;2024-01-10T02:11:42;9.82;;;5.00;;
73452;SDS011;61687;56.232;43.854;2024-01-10T02:14:08;10.52;;;5.60;;
73452;SDS011;61687;56.232;43.854;2024-01-10T02:16:36;11.37;;;5.93;;
73452;SDS011;61687;56.232;43.854;2024-01-10T02:19:09;9.80;;;5.57;;
73452;SDS011;61687;56.232;43.854;2024-01-10T02:21:46;11.13;;;6.32;;
73452;SDS011;61687;56.232;43.854;2024-01-10T02:24:12;11.30;;;5.72;;
73452;SDS011;61687;56.232;43.854;2024-01-10T02:26:38;11.57;;;5.55;;
73452;SDS011;61687;56.232;43.854;2024-01-10T02:29:05;14.60;;;5.43;;
73452;SDS011;61687;56.232;43.854;2024-01-10T02:31:31;11.63;;;5.80;;
73452;SDS011;61687;56.232;43.854;2024-01-10T02:33:57;8.70;;;4.40;;
73452;SDS011;61687;56.232;43.854;2024-01-10T02:36:23;11.90;;;4.20;;
73452;SDS011;61687;56.232;43.854;2024-01-10T02:38:49;8.07;;;4.57;;
73452;SDS011;61687;56.232;43.854;2024-01-10T02:41:15;5.90;;;4.22;;
73452;SDS011;61687;56.232;43.854;2024-01-10T02:43:42;9.20;;;4.53;;
73452;SDS011;61687;56.232;43.854;2024-01-10T02:46:08;8.20;;;4.70;;
73452;SDS011;61687;56.232;43.854;2024-01-10T02:48:34;8.83;;;4.13;;
73452;SDS011;61687;56.232;43.854;2024-01-10T02:51:00;8.18;;;4.75;;
73452;SDS011;61687;56.232;43.854;2024-01-10T02:53:26;9.35;;;4.85;;
73452;SDS011;61687;56.232;43.854;2024-01-10T02:55:52;8.48;;;4.93;;
73452;SDS011;61687;56.232;43.854;2024-01-10T02:58:18;9.65;;;4.75;;
73452;SDS011;61687;56.232;43.854;2024-01-10T03:00:46;13.98;;;5.65;;
73452;SDS011;61687;56.232;43.854;2024-01-10T03:03:12;13.10;;;5.43;;
73452;SDS011;61687;56.232;43.854;2024-01-10T03:05:39;8.70;;;4.83;;
73452;SDS011;61687;56.232;43.854;2024-01-10T03:08:05;10.23;;;5.45;;
73452;SDS011;61687;56.232;43.854;2024-01-10T03:10:32;13.48;;;5.63;;
73452;SDS011;61687;56.232;43.854;2024-01-10T03:12:58;10.00;;;5.07;;
73452;SDS011;61687;56.232;43.854;2024-01-10T03:15:24;8.70;;;5.45;;
73452;SDS011;61687;56.232;43.854;2024-01-10T03:17:50;11.98;;;5.50;;
73452;SDS011;61687;56.232;43.854;2024-01-10T03:20:16;7.78;;;5.13;;
73452;SDS011;61687;56.232;43.854;2024-01-10T03:22:42;12.37;;;5.77;;
73452;SDS011;61687;56.232;43.854;2024-01-10T03:25:08;11.82;;;5.32;;
73452;SDS011;61687;56.232;43.854;2024-01-10T03:27:34;8.27;;;5.28;;
73452;SDS011;61687;56.232;43.854;2024-01-10T03:30:00;9.50;;;5.47;;
73452;SDS011;61687;56.232;43.854;2024-01-10T03:32:26;17.43;;;5.43;;
73452;SDS011;61687;56.232;43.854;2024-01-10T03:34:52;12.80;;;6.20;;
73452;SDS011;61687;56.232;43.854;2024-01-10T03:37:18;10.35;;;5.63;;
73452;SDS011;61687;56.232;43.854;2024-01-10T03:39:44;12.57;;;6.07;;
73452;SDS011;61687;56.232;43.854;2024-01-10T03:42:10;12.52;;;6.60;;
73452;SDS011;61687;56.232;43.854;2024-01-10T03:44:36;12.90;;;6.15;;
73452;SDS011;61687;56.232;43.854;2024-01-10T03:47:02;7.43;;;5.50;;
73452;SDS011;61687;56.232;43.854;2024-01-10T03:49:28;13.02;;;5.50;;
73452;SDS011;61687;56.232;43.854;2024-01-10T03:51:54;12.53;;;6.37;;
73452;SDS011;61687;56.232;43.854;2024-01-10T03:54:20;12.70;;;6.30;;
73452;SDS011;61687;56.232;43.854;2024-01-10T03:56:46;12.55;;;6.43;;
73452;SDS011;61687;56.232;43.854;2024-01-10T03:59:12;13.88;;;7.43;;
73452;SDS011;61687;56.232;43.854;2024-01-10T04:01:38;10.77;;;6.27;;
73452;SDS011;61687;56.232;43.854;2024-01-10T04:04:05;16.60;;;7.32;;
73452;SDS011;61687;56.232;43.854;2024-01-10T04:06:30;14.02;;;6.25;;
73452;SDS011;61687;56.232;43.854;2024-01-10T04:08:56;14.30;;;6.97;;
73452;SDS011;61687;56.232;43.854;2024-01-10T04:11:22;12.43;;;5.90;;
73452;SDS011;61687;56.232;43.854;2024-01-10T04:13:48;11.95;;;6.72;;
73452;SDS011;61687;56.232;43.854;2024-01-10T04:16:14;16.08;;;6.57;;
73452;SDS011;61687;56.232;43.854;2024-01-10T04:18:40;12.02;;;5.63;;
73452;SDS011;61687;56.232;43.854;2024-01-10T04:21:06;15.60;;;8.00;;
73452;SDS011;61687;56.232;43.854;2024-01-10T04:23:32;15.30;;;7.43;;
73452;SDS011;61687;56.232;43.854;2024-01-10T04:26:00;10.48;;;5.97;;
73452;SDS011;61687;56.232;43.854;2024-01-10T04:28:28;13.27;;;6.83;;
73452;SDS011;61687;56.232;43.854;2024-01-10T04:30:54;15.18;;;7.22;;
73452;SDS011;61687;56.232;43.854;2024-01-10T04:33:20;13.23;;;6.63;;
73452;SDS011;61687;56.232;43.854;2024-01-10T04:35:46;10.65;;;5.75;;
73452;SDS011;61687;56.232;43.854;2024-01-10T04:38:11;13.53;;;6.23;;
73452;SDS011;61687;56.232;43.854;2024-01-10T04:40:37;13.38;;;6.55;;
73452;SDS011;61687;56.232;43.854;2024-01-10T04:43:03;13.70;;;6.40;;
73452;SDS011;61687;56.232;43.854;2024-01-10T04:45:29;8.27;;;4.43;;
73452;SDS011;61687;56.232;43.854;2024-01-10T04:47:55;10.90;;;4.82;;
73452;SDS011;61687;56.232;43.854;2024-01-10T04:50:21;11.05;;;6.35;;
73452;SDS011;61687;56.232;43.854;2024-01-10T04:52:47;10.67;;;6.20;;
73452;SDS011;61687;56.232;43.854;2024-01-10T04:55:13;9.68;;;5.13;;
73452;SDS011;61687;56.232;43.854;2024-01-10T04:57:39;9.93;;;6.43;;
73452;SDS011;61687;56.232;43.854;2024-01-10T05:00:05;15.33;;;6.23;;
73452;SDS011;61687;56.232;43.854;2024-01-10T05:02:32;19.02;;;6.40;;
73452;SDS011;61687;56.232;43.854;2024-01-10T05:04:58;6.88;;;4.95;;
73452;SDS011;61687;56.232;43.854;2024-01-10T05:07:24;10.43;;;6.00;;
73452;SDS011;61687;56.232;43.854;2024-01-10T05:09:50;11.17;;;4.40;;
73452;SDS011;61687;56.232;43.854;2024-01-10T05:12:16;12.63;;;5.75;;
73452;SDS011;61687;56.232;43.854;2024-01-10T05:14:41;10.02;;;5.70;;
73452;SDS011;61687;56.232;43.854;2024-01-10T05:17:07;14.90;;;6.00;;
73452;SDS011;61687;56.232;43.854;2024-01-10T05:19:33;13.43;;;6.95;;
73452;SDS011;61687;56.232;43.854;2024-01-10T05:21:59;16.97;;;6.60;;
73452;SDS011;61687;56.232;43.854;2024-01-10T05:24:25;13.43;;;6.13;;
73452;SDS011;61687;56.232;43.854;2024-01-10T05:26:51;11.15;;;4.95;;
73452;SDS011;61687;56.232;43.854;2024-01-10T05:29:17;13.47;;;5.83;;
73452;SDS011;61687;56.232;43.854;2024-01-10T05:31:45;21.95;;;6.95;;
73452;SDS011;61687;56.232;43.854;2024-01-10T05:34:12;10.85;;;5.95;;
73452;SDS011;61687;56.232;43.854;2024-01-10T05:36:38;13.85;;;5.63;;
73452;SDS011;61687;56.232;43.854;2024-01-10T05:39:04;17.52;;;7.22;;
73452;SDS011;61687;56.232;43.854;2024-01-10T05:41:30;20.38;;;8.30;;
73452;SDS011;61687;56.232;43.854;2024-01-10T05:43:56;14.18;;;6.55;;
73452;SDS011;61687;56.232;43.854;2024-01-10T05:46:22;16.70;;;7.23;;
73452;SDS011;61687;56.232;43.854;2024-01-10T05:48:48;12.25;;;6.20;;
73452;SDS011;61687;56.232;43.854;2024-01-10T05:51:13;15.18;;;8.07;;
73452;SDS011;61687;56.232;43.854;2024-01-10T05:53:39;14.77;;;5.97;;
73452;SDS011;61687;56.232;43.854;2024-01-10T05:56:06;14.85;;;7.20;;
73452;SDS011;61687;56.232;43.854;2024-01-10T05:58:32;10.90;;;6.68;;
73452;SDS011;61687;56.232;43.854;2024-01-10T06:00:58;12.65;;;6.80;;
73452;SDS011;61687;56.232;43.854;2024-01-10T06:03:24;15.25;;;6.68;;
73452;SDS011;61687;56.232;43.854;2024-01-10T06:05:50;18.83;;;8.35;;
73452;SDS011;61687;56.232;43.854;2024-01-10T06:08:16;11.33;;;6.50;;
73452;SDS011;61687;56.232;43.854;2024-01-10T06:10:42;15.88;;;7.40;;
73452;SDS011;61687;56.232;43.854;2024-01-10T06:13:08;19.73;;;7.95;;
73452;SDS011;61687;56.232;43.854;2024-01-10T06:15:34;14.40;;;7.50;;
73452;SDS011;61687;56.232;43.854;2024-01-10T06:18:00;24.40;;;9.57;;
73452;SDS011;61687;56.232;43.854;2024-01-10T06:20:26;22.85;;;10.70;;
73452;SDS011;61687;56.232;43.854;2024-01-10T06:22:52;23.55;;;11.45;;
73452;SDS011;61687;56.232;43.854;2024-01-10T06:25:18;23.70;;;10.02;;
73452;SDS011;61687;56.232;43.854;2024-01-10T06:27:44;41.03;;;14.53;;
73452;SDS011;61687;56.232;43.854;2024-01-10T06:30:10;35.63;;;15.45;;
73452;SDS011;61687;56.232;43.854;2024-01-10T06:32:36;34.40;;;14.23;;
73452;SDS011;61687;56.232;43.854;2024-01-10T06:35:02;41.27;;;14.67;;
73452;SDS011;61687;56.232;43.854;2024-01-10T06:37:31;37.80;;;15.43;;
73452;SDS011;61687;56.232;43.854;2024-01-10T06:39:57;42.33;;;15.57;;
73452;SDS011;61687;56.232;43.854;2024-01-10T06:42:23;29.17;;;14.63;;
73452;SDS011;61687;56.232;43.854;2024-01-10T06:44:49;37.95;;;16.13;;
73452;SDS011;61687;56.232;43.854;2024-01-10T06:47:15;41.60;;;16.40;;
73452;SDS011;61687;56.232;43.854;2024-01-10T06:49:42;43.08;;;14.98;;
73452;SDS011;61687;56.232;43.854;2024-01-10T06:52:08;37.03;;;14.82;;
73452;SDS011;61687;56.232;43.854;2024-01-10T06:54:34;35.95;;;15.32;;
73452;SDS011;61687;56.232;43.854;2024-01-10T06:57:01;28.53;;;10.83;;
73452;SDS011;61687;56.232;43.854;2024-01-10T06:59:27;28.15;;;11.48;;
73452;SDS011;61687;56.232;43.854;2024-01-10T07:01:53;23.45;;;9.98;;
73452;SDS011;61687;56.232;43.854;2024-01-10T07:04:22;28.52;;;12.05;;
73452;SDS011;61687;56.232;43.854;2024-01-10T07:06:49;21.88;;;10.77;;
73452;SDS011;61687;56.232;43.854;2024-01-10T07:09:15;25.10;;;9.47;;
73452;SDS011;61687;56.232;43.854;2024-01-10T07:11:46;33.03;;;13.30;;
73452;SDS011;61687;56.232;43.854;2024-01-10T07:14:13;30.75;;;11.85;;
73452;SDS011;61687;56.232;43.854;2024-01-10T07:16:40;44.33;;;13.43;;
73452;SDS011;61687;56.232;43.854;2024-01-10T07:19:09;37.07;;;12.43;;
73452;SDS011;61687;56.232;43.854;2024-01-10T07:21:42;40.13;;;13.60;;
73452;SDS011;61687;56.232;43.854;2024-01-10T07:24:09;33.13;;;11.95;;
73452;SDS011;61687;56.232;43.854;2024-01-10T07:26:38;32.65;;;10.55;;
73452;SDS011;61687;56.232;43.854;2024-01-10T07:29:04;22.33;;;10.55;;
73452;SDS011;61687;56.232;43.854;2024-01-10T07:31:34;21.60;;;8.47;;
73452;SDS011;61687;56.232;43.854;2024-01-10T07:34:01;25.33;;;8.55;;
73452;SDS011;61687;56.232;43.854;2024-01-10T07:36:27;22.40;;;9.35;;
73452;SDS011;61687;56.232;43.854;2024-01-10T07:38:56;28.17;;;9.50;;
73452;SDS011;61687;56.232;43.854;2024-01-10T07:41:25;31.58;;;9.23;;
73452;SDS011;61687;56.232;43.854;2024-01-10T07:43:51;22.30;;;8.53;;
73452;SDS011;61687;56.232;43.854;2024-01-10T07:46:17;15.50;;;7.20;;
73452;SDS011;61687;56.232;43.854;2024-01-10T07:48:43;22.95;;;9.40;;
73452;SDS011;61687;56.232;43.854;2024-01-10T07:51:09;19.67;;;8.00;;
73452;SDS011;61687;56.232;43.854;2024-01-10T07:53:36;26.42;;;9.45;;
73452;SDS011;61687;56.232;43.854;2024-01-10T07:56:02;18.80;;;8.00;;
73452;SDS011;61687;56.232;43.854;2024-01-10T07:58:28;22.48;;;8.73;;
73452;SDS011;61687;56.232;43.854;2024-01-10T08:00:53;16.23;;;7.13;;
73452;SDS011;61687;56.232;43.854;2024-01-10T08:03:19;20.35;;;8.00;;
73452;SDS011;61687;56.232;43.854;2024-01-10T08:05:45;13.48;;;6.22;;
73452;SDS011;61687;56.232;43.854;2024-01-10T08:08:12;12.77;;;5.67;;
73452;SDS011;61687;56.232;43.854;2024-01-10T08:10:39;12.20;;;6.25;;
73452;SDS011;61687;56.232;43.854;2024-01-10T08:13:05;21.52;;;8.45;;
73452;SDS011;61687;56.232;43.854;2024-01-10T08:15:32;21.20;;;6.28;;
73452;SDS011;61687;56.232;43.854;2024-01-10T08:18:00;9.43;;;5.60;;
73452;SDS011;61687;56.232;43.854;2024-01-10T08:20:29;18.60;;;6.47;;
73452;SDS011;61687;56.232;43.854;2024-01-10T08:22:55;10.50;;;5.70;;
73452;SDS011;61687;56.232;43.854;2024-01-10T08:25:21;14.90;;;6.35;;
73452;SDS011;61687;56.232;43.854;2024-01-10T08:27:47;18.98;;;7.10;;
73452;SDS011;61687;56.232;43.854;2024-01-10T08:30:14;12.93;;;6.20;;
73452;SDS011;61687;56.232;43.854;2024-01-10T08:32:41;12.90;;;6.07;;
73452;SDS011;61687;56.232;43.854;2024-01-10T08:35:07;14.23;;;7.43;;
73452;SDS011;61687;56.232;43.854;2024-01-10T08:37:34;18.83;;;7.15;;
73452;SDS011;61687;56.232;43.854;2024-01-10T08:40:00;17.17;;;7.13;;
73452;SDS011;61687;56.232;43.854;2024-01-10T08:42:33;14.37;;;6.00;;
73452;SDS011;61687;56.232;43.854;2024-01-10T08:44:59;11.70;;;6.15;;
73452;SDS011;61687;56.232;43.854;2024-01-10T08:47:24;20.20;;;7.25;;
73452;SDS011;61687;56.232;43.854;2024-01-10T08:49:50;13.53;;;6.50;;
73452;SDS011;61687;56.232;43.854;2024-01-10T08:52:16;12.38;;;6.60;;
73452;SDS011;61687;56.232;43.854;2024-01-10T08:54:42;17.50;;;7.60;;
73452;SDS011;61687;56.232;43.854;2024-01-10T08:57:08;15.30;;;7.67;;
73452;SDS011;61687;56.232;43.854;2024-01-10T08:59:34;12.90;;;6.47;;
73452;SDS011;61687;56.232;43.854;2024-01-10T09:02:00;20.25;;;6.97;;
73452;SDS011;61687;56.232;43.854;2024-01-10T09:04:26;12.83;;;6.73;;
73452;SDS011;61687;56.232;43.854;2024-01-10T09:06:52;19.17;;;6.32;;
73452;SDS011;61687;56.232;43.854;2024-01-10T09:09:17;16.05;;;6.65;;
73452;SDS011;61687;56.232;43.854;2024-01-10T09:11:46;13.63;;;6.70;;
73452;SDS011;61687;56.232;43.854;2024-01-10T09:14:16;11.75;;;5.72;;
73452;SDS011;61687;56.232;43.854;2024-01-10T09:16:42;17.60;;;8.30;;
73452;SDS011;61687;56.232;43.854;2024-01-10T09:19:08;14.30;;;7.47;;
73452;SDS011;61687;56.232;43.854;2024-01-10T09:21:35;17.15;;;7.50;;
73452;SDS011;61687;56.232;43.854;2024-01-10T09:24:01;13.67;;;6.93;;
73452;SDS011;61687;56.232;43.854;2024-01-10T09:26:30;13.77;;;6.20;;
73452;SDS011;61687;56.232;43.854;2024-01-10T09:28:56;13.60;;;6.35;;
73452;SDS011;61687;56.232;43.854;2024-01-10T09:31:22;13.93;;;7.00;;
73452;SDS011;61687;56.232;43.854;2024-01-10T09:33:48;17.33;;;8.02;;
73452;SDS011;61687;56.232;43.854;2024-01-10T09:36:14;15.13;;;6.18;;
73452;SDS011;61687;56.232;43.854;2024-01-10T09:38:40;20.57;;;8.73;;
73452;SDS011;61687;56.232;43.854;2024-01-10T09:41:06;15.90;;;8.45;;
73452;SDS011;61687;56.232;43.854;2024-01-10T09:43:32;17.98;;;8.35;;
73452;SDS011;61687;56.232;43.854;2024-01-10T09:46:01;12.57;;;7.57;;
73452;SDS011;61687;56.232;43.854;2024-01-10T09:48:30;13.53;;;7.50;;
73452;SDS011;61687;56.232;43.854;2024-01-10T09:50:56;17.23;;;7.63;;
73452;SDS011;61687;56.232;43.854;2024-01-10T09:53:23;15.02;;;7.13;;
73452;SDS011;61687;56.232;43.854;2024-01-10T09:55:50;13.75;;;7.13;;
73452;SDS011;61687;56.232;43.854;2024-01-10T09:58:16;13.70;;;6.82;;
73452;SDS011;61687;56.232;43.854;2024-01-10T10:00:42;17.48;;;6.95;;
73452;SDS011;61687;56.232;43.854;2024-01-10T10:03:08;13.02;;;7.57;;
73452;SDS011;61687;56.232;43.854;2024-01-10T10:05:39;14.65;;;7.10;;
73452;SDS011;61687;56.232;43.854;2024-01-10T10:08:07;19.57;;;6.63;;
73452;SDS011;61687;56.232;43.854;2024-01-10T10:10:35;14.65;;;6.72;;
73452;SDS011;61687;56.232;43.854;2024-01-10T10:13:01;19.20;;;7.40;;
73452;SDS011;61687;56.232;43.854;2024-01-10T10:15:28;14.38;;;6.97;;
73452;SDS011;61687;56.232;43.854;2024-01-10T10:17:54;14.67;;;6.33;;
73452;SDS011;61687;56.232;43.854;2024-01-10T10:25:34;13.60;;;6.13;;
73452;SDS011;61687;56.232;43.854;2024-01-10T10:28:02;13.70;;;6.35;;
73452;SDS011;61687;56.232;43.854;2024-01-10T10:30:30;16.17;;;5.87;;
73452;SDS011;61687;56.232;43.854;2024-01-10T10:32:57;13.60;;;6.30;;
73452;SDS011;61687;56.232;43.854;2024-01-10T10:35:23;16.52;;;7.40;;
73452;SDS011;61687;56.232;43.854;2024-01-10T10:37:49;13.13;;;7.20;;
73452;SDS011;61687;56.232;43.854;2024-01-10T10:40:16;10.47;;;6.30;;
73452;SDS011;61687;56.232;43.854;2024-01-10T10:42:45;11.98;;;6.10;;
73452;SDS011;61687;56.232;43.854;2024-01-10T10:45:16;12.48;;;6.35;;
73452;SDS011;61687;56.232;43.854;2024-01-10T10:47:46;14.13;;;5.90;;
73452;SDS011;61687;56.232;43.854;2024-01-10T10:50:24;13.02;;;6.55;;
73452;SDS011;61687;56.232;43.854;2024-01-10T10:52:53;14.50;;;6.17;;
73452;SDS011;61687;56.232;43.854;2024-01-10T10:55:21;15.20;;;6.13;;
73452;SDS011;61687;56.232;43.854;2024-01-10T10:57:49;13.13;;;7.22;;
73452;SDS011;61687;56.232;43.854;2024-01-10T11:00:17;16.67;;;6.00;;
73452;SDS011;61687;56.232;43.854;2024-01-10T11:02:45;15.82;;;6.78;;
73452;SDS011;61687;56.232;43.854;2024-01-10T11:05:12;11.47;;;5.07;;
73452;SDS011;61687;56.232;43.854;2024-01-10T11:07:42;11.23;;;6.38;;
73452;SDS011;61687;56.232;43.854;2024-01-10T11:10:19;11.85;;;5.88;;
73452;SDS011;61687;56.232;43.854;2024-01-10T11:19:38;11.60;;;5.70;;
73452;SDS011;61687;56.232;43.854;2024-01-10T11:24:17;11.02;;;5.28;;
73452;SDS011;61687;56.232;43.854;2024-01-10T11:26:44;10.50;;;4.78;;
73452;SDS011;61687;56.232;43.854;2024-01-10T11:29:11;15.70;;;6.53;;
73452;SDS011;61687;56.232;43.854;2024-01-10T11:31:38;15.83;;;4.60;;
73452;SDS011;61687;56.232;43.854;2024-01-10T11:34:04;13.27;;;5.05;;
73452;SDS011;61687;56.232;43.854;2024-01-10T11:36:30;13.88;;;5.82;;
73452;SDS011;61687;56.232;43.854;2024-01-10T11:38:58;13.13;;;5.70;;
73452;SDS011;61687;56.232;43.854;2024-01-10T11:41:27;14.03;;;6.13;;
73452;SDS011;61687;56.232;43.854;2024-01-10T11:46:42;13.05;;;5.30;;
73452;SDS011;61687;56.232;43.854;2024-01-10T11:49:09;10.43;;;4.63;;
73452;SDS011;61687;56.232;43.854;2024-01-10T11:51:37;12.18;;;5.13;;
73452;SDS011;61687;56.232;43.854;2024-01-10T11:54:03;11.30;;;5.77;;
73452;SDS011;61687;56.232;43.854;2024-01-10T11:56:39;13.13;;;6.30;;
73452;SDS011;61687;56.232;43.854;2024-01-10T11:59:08;11.60;;;5.22;;
73452;SDS011;61687;56.232;43.854;2024-01-10T12:01:38;11.35;;;5.13;;
73452;SDS011;61687;56.232;43.854;2024-01-10T12:04:06;12.90;;;5.78;;
73452;SDS011;61687;56.232;43.854;2024-01-10T12:06:35;12.23;;;5.53;;
73452;SDS011;61687;56.232;43.854;2024-01-10T12:09:02;13.13;;;7.18;;
73452;SDS011;61687;56.232;43.854;2024-01-10T12:11:37;9.70;;;4.93;;
73452;SDS011;61687;56.232;43.854;2024-01-10T12:14:04;13.00;;;4.80;;
73452;SDS011;61687;56.232;43.854;2024-01-10T12:16:32;10.38;;;4.70;;
73452;SDS011;61687;56.232;43.854;2024-01-10T12:18:58;9.57;;;4.23;;
73452;SDS011;61687;56.232;43.854;2024-01-10T12:21:24;8.75;;;4.32;;
73452;SDS011;61687;56.232;43.854;2024-01-10T12:23:50;15.52;;;6.47;;
73452;SDS011;61687;56.232;43.854;2024-01-10T12:26:18;10.63;;;5.27;;
73452;SDS011;61687;56.232;43.854;2024-01-10T12:28:53;12.25;;;5.15;;
73452;SDS011;61687;56.232;43.854;2024-01-10T12:31:20;13.68;;;5.85;;
73452;SDS011;61687;56.232;43.854;2024-01-10T12:33:51;11.73;;;5.30;;
73452;SDS011;61687;56.232;43.854;2024-01-10T12:36:17;11.93;;;5.30;;
73452;SDS011;61687;56.232;43.854;2024-01-10T12:38:45;11.17;;;4.97;;
73452;SDS011;61687;56.232;43.854;2024-01-10T12:41:11;10.85;;;5.82;;
73452;SDS011;61687;56.232;43.854;2024-01-10T12:43:37;16.92;;;6.28;;
73452;SDS011;61687;56.232;43.854;2024-01-10T12:46:04;10.60;;;5.03;;
73452;SDS011;61687;56.232;43.854;2024-01-10T12:48:36;11.00;;;6.18;;
73452;SDS011;61687;56.232;43.854;2024-01-10T12:51:09;13.40;;;5.83;;
73452;SDS011;61687;56.232;43.854;2024-01-10T12:53:38;16.08;;;6.40;;
73452;SDS011;61687;56.232;43.854;2024-01-10T12:56:05;12.65;;;5.45;;
73452;SDS011;61687;56.232;43.854;2024-01-10T12:58:32;14.38;;;6.57;;
73452;SDS011;61687;56.232;43.854;2024-01-10T13:00:58;16.13;;;6.80;;
73452;SDS011;61687;56.232;43.854;2024-01-10T13:03:24;14.67;;;6.10;;
73452;SDS011;61687;56.232;43.854;2024-01-10T13:05:51;13.45;;;5.75;;
73452;SDS011;61687;56.232;43.854;2024-01-10T13:08:17;11.25;;;4.70;;
73452;SDS011;61687;56.232;43.854;2024-01-10T13:10:45;12.15;;;6.82;;
73452;SDS011;61687;56.232;43.854;2024-01-10T13:13:13;13.67;;;6.63;;
73452;SDS011;61687;56.232;43.854;2024-01-10T13:15:40;14.68;;;5.95;;
73452;SDS011;61687;56.232;43.854;2024-01-10T13:18:07;12.73;;;5.47;;
73452;SDS011;61687;56.232;43.854;2024-01-10T13:20:35;8.75;;;4.70;;
73452;SDS011;61687;56.232;43.854;2024-01-10T13:23:02;14.18;;;5.00;;
73452;SDS011;61687;56.232;43.854;2024-01-10T13:25:28;13.13;;;5.50;;
73452;SDS011;61687;56.232;43.854;2024-01-10T13:27:53;12.80;;;5.53;;
73452;SDS011;61687;56.232;43.854;2024-01-10T13:30:19;14.80;;;6.25;;
73452;SDS011;61687;56.232;43.854;2024-01-10T13:32:45;13.23;;;4.95;;
73452;SDS011;61687;56.232;43.854;2024-01-10T13:35:14;12.18;;;5.60;;
73452;SDS011;61687;56.232;43.854;2024-01-10T13:37:44;12.05;;;4.88;;
73452;SDS011;61687;56.232;43.854;2024-01-10T13:40:10;9.57;;;4.97;;
73452;SDS011;61687;56.232;43.854;2024-01-10T13:42:39;10.18;;;5.60;;
73452;SDS011;61687;56.232;43.854;2024-01-10T13:45:06;10.90;;;5.70;;
73452;SDS011;61687;56.232;43.854;2024-01-10T13:47:39;12.82;;;5.13;;
73452;SDS011;61687;56.232;43.854;2024-01-10T13:50:06;14.13;;;5.22;;
73452;SDS011;61687;56.232;43.854;2024-01-10T13:52:32;12.25;;;5.47;;
73452;SDS011;61687;56.232;43.854;2024-01-10T13:54:59;15.00;;;6.30;;
73452;SDS011;61687;56.232;43.854;2024-01-10T13:57:25;13.10;;;5.33;;
73452;SDS011;61687;56.232;43.854;2024-01-10T13:59:51;19.15;;;5.93;;
73452;SDS011;61687;56.232;43.854;2024-01-10T14:02:17;11.77;;;6.22;;
73452;SDS011;61687;56.232;43.854;2024-01-10T14:04:45;14.90;;;6.28;;
73452;SDS011;61687;56.232;43.854;2024-01-10T14:07:11;12.17;;;5.47;;
73452;SDS011;61687;56.232;43.854;2024-01-10T14:09:36;13.55;;;6.25;;
73452;SDS011;61687;56.232;43.854;2024-01-10T14:12:02;10.27;;;5.72;;
73452;SDS011;61687;56.232;43.854;2024-01-10T14:14:28;13.40;;;5.77;;
73452;SDS011;61687;56.232;43.854;2024-01-10T14:16:57;12.82;;;5.15;;
73452;SDS011;61687;56.232;43.854;2024-01-10T14:19:23;10.60;;;5.43;;
73452;SDS011;61687;56.232;43.854;2024-01-10T14:21:49;14.63;;;5.53;;
73452;SDS011;61687;56.232;43.854;2024-01-10T14:24:15;12.77;;;5.03;;
73452;SDS011;61687;56.232;43.854;2024-01-10T14:26:41;12.05;;;5.88;;
73452;SDS011;61687;56.232;43.854;2024-01-10T14:29:07;14.63;;;6.22;;
73452;SDS011;61687;56.232;43.854;2024-01-10T14:31:34;11.53;;;5.10;;
73452;SDS011;61687;56.232;43.854;2024-01-10T14:34:00;15.25;;;6.85;;
73452;SDS011;61687;56.232;43.854;2024-01-10T14:36:26;10.50;;;5.13;;